Time;durP1;ratioP1;P1;durP2;ratioP2;P2;SDS_P1;SDS_P2;PMS_P1;PMS_P2;Temp;Humidity;BMP_temperature;BMP_pressure;BME280_temperature;BME280_humidity;BME280_pressure;Samples;Min_cycle;Max_cycle;Signal;HPM_P1;HPM_P2
2023/12/17 00:02:12;;;;;;;6.75;4.60;;;;;;;3.05;100.00;99629.22;5115841;28;20087;-61
2023/12/17 00:04:38;;;;;;;8.38;4.43;;;;;;;2.98;100.00;99623.41;5114614;28;20120;-62
2023/12/17 00:07:05;;;;;;;7.00;4.18;;;;;;;2.85;100.00;99622.31;5116999;28;20090;-64
2023/12/17 00:09:31;;;;;;;10.52;4.50;;;;;;;3.03;100.00;99609.75;5114668;28;20051;-64
2023/12/17 00:11:58;;;;;;;6.93;4.53;;;;;;;2.89;100.00;99607.06;5117102;28;20372;-63
2023/12/17 00:14:24;;;;;;;6.60;4.40;;;;;;;2.98;100.00;99596.31;5114417;28;20144;-62
2023/12/17 00:16:50;;;;;;;8.98;5.25;;;;;;;3.08;100.00;99589.88;5116877;28;20106;-64
2023/12/17 00:19:18;;;;;;;8.43;5.03;;;;;;;3.04;100.00;99595.91;5113821;28;20051;-63
2023/12/17 00:21:44;;;;;;;7.07;4.40;;;;;;;2.97;100.00;99589.31;5116909;28;20060;-61
2023/12/17 00:24:11;;;;;;;5.45;3.67;;;;;;;3.03;100.00;99582.66;5114418;28;20052;-61
2023/12/17 00:26:37;;;;;;;7.93;4.57;;;;;;;3.22;100.00;99585.22;5116420;28;20056;-61
2023/12/17 00:29:03;;;;;;;10.57;4.60;;;;;;;3.10;100.00;99590.38;5116694;28;20048;-63
2023/12/17 00:31:30;;;;;;;9.13;4.55;;;;;;;3.18;100.00;99592.38;5117944;28;20052;-62
2023/12/17 00:33:56;;;;;;;7.72;4.88;;;;;;;3.21;100.00;99599.88;5120185;28;20059;-61
2023/12/17 00:36:24;;;;;;;6.80;3.90;;;;;;;3.22;100.00;99598.78;5118020;28;20056;-61
2023/12/17 00:38:50;;;;;;;7.97;4.82;;;;;;;3.00;100.00;99596.81;5120143;28;20530;-64
2023/12/17 00:41:16;;;;;;;8.45;4.78;;;;;;;3.15;100.00;99584.84;5117816;28;20095;-61
2023/12/17 00:43:43;;;;;;;6.47;4.63;;;;;;;3.02;100.00;99591.91;5120073;28;20058;-63
2023/12/17 00:46:10;;;;;;;7.78;4.40;;;;;;;3.16;100.00;99579.13;5117792;28;20063;-63
2023/12/17 00:48:36;;;;;;;6.38;4.20;;;;;;;2.93;100.00;99572.88;5120253;28;20376;-60
2023/12/17 00:51:04;;;;;;;9.38;4.35;;;;;;;3.18;100.00;99563.38;5117678;28;20054;-61
2023/12/17 00:53:31;;;;;;;7.88;4.32;;;;;;;3.10;100.00;99564.09;5120188;28;20105;-62
2023/12/17 00:55:57;;;;;;;7.97;4.28;;;;;;;3.06;100.00;99547.63;5117519;28;20116;-63
2023/12/17 00:58:24;;;;;;;10.25;4.85;;;;;;;3.27;100.00;99544.47;5117972;28;20062;-64
2023/12/17 01:00:50;;;;;;;6.80;4.22;;;;;;;3.01;100.00;99552.38;5119644;28;20108;-62
2023/12/17 01:03:17;;;;;;;7.75;4.72;;;;;;;3.18;100.00;99547.09;5117832;28;20079;-61
2023/12/17 01:05:43;;;;;;;6.63;4.28;;;;;;;3.13;100.00;99549.91;5119675;28;20108;-61
2023/12/17 01:08:10;;;;;;;6.15;3.95;;;;;;;3.21;100.00;99548.41;5117363;28;20450;-62
2023/12/17 01:10:37;;;;;;;8.00;4.93;;;;;;;3.24;100.00;99556.72;5119726;28;20055;-64
2023/12/17 01:13:04;;;;;;;9.02;4.15;;;;;;;3.03;100.00;99544.72;5117264;28;20055;-63
2023/12/17 01:15:30;;;;;;;9.30;5.05;;;;;;;3.19;100.00;99546.00;5119800;28;20365;-63
2023/12/17 01:17:57;;;;;;;6.63;4.10;;;;;;;3.17;100.00;99526.56;5117177;28;20116;-61
2023/12/17 01:20:24;;;;;;;8.30;4.78;;;;;;;3.26;100.00;99534.72;5119782;28;20067;-62
2023/12/17 01:22:50;;;;;;;8.77;4.60;;;;;;;3.03;100.00;99556.41;5117232;28;20422;-63
2023/12/17 01:25:17;;;;;;;6.32;4.05;;;;;;;3.26;100.00;99546.38;5118986;28;20051;-61
2023/12/17 01:27:44;;;;;;;9.25;4.55;;;;;;;3.33;100.00;99534.31;5118105;28;20076;-60
2023/12/17 01:30:11;;;;;;;7.55;4.78;;;;;;;3.31;100.00;99540.03;5117028;28;20055;-62
2023/12/17 01:32:37;;;;;;;8.88;5.18;;;;;;;3.44;100.00;99530.25;5119349;28;20139;-61
2023/12/17 01:35:07;;;;;;;7.82;4.85;;;;;;;3.22;100.00;99541.88;5116983;28;20439;-62
2023/12/17 01:37:34;;;;;;;11.35;5.95;;;;;;;3.40;100.00;99532.78;5119368;28;20393;-61
2023/12/17 01:40:00;;;;;;;11.20;5.03;;;;;;;3.24;100.00;99551.31;5116921;28;20058;-61
2023/12/17 01:42:27;;;;;;;10.13;5.55;;;;;;;3.40;100.00;99542.81;5118989;28;20314;-64
2023/12/17 01:44:54;;;;;;;7.47;4.90;;;;;;;3.46;100.00;99536.16;5116739;28;20052;-63
2023/12/17 01:47:20;;;;;;;8.52;4.38;;;;;;;3.31;100.00;99534.63;5119344;28;20326;-60
2023/12/17 01:49:47;;;;;;;8.48;5.18;;;;;;;3.46;100.00;99526.09;5116826;28;20116;-62
2023/12/17 01:52:14;;;;;;;10.65;4.97;;;;;;;3.43;100.00;99534.06;5119084;28;20051;-64
2023/12/17 01:54:40;;;;;;;7.70;4.90;;;;;;;3.29;100.00;99529.50;5117461;28;20384;-63
2023/12/17 01:57:07;;;;;;;9.93;5.55;;;;;;;3.25;100.00;99514.97;5099637;28;20056;-60
2023/12/17 01:59:35;;;;;;;10.15;5.40;;;;;;;3.45;100.00;99499.31;5118827;28;20449;-64
2023/12/17 02:02:03;;;;;;;9.70;5.22;;;;;;;3.28;100.00;99500.81;5116754;28;20064;-62
2023/12/17 02:04:30;;;;;;;8.82;5.03;;;;;;;3.17;100.00;99480.50;5118833;28;20113;-64
2023/12/17 02:06:56;;;;;;;7.07;4.90;;;;;;;3.27;100.00;99457.78;5116539;28;20420;-64
2023/12/17 02:09:23;;;;;;;8.77;5.45;;;;;;;3.15;100.00;99455.59;5118884;28;20048;-61
2023/12/17 02:11:49;;;;;;;9.68;4.97;;;;;;;3.26;100.00;99442.59;5116450;28;20055;-62
2023/12/17 02:14:15;;;;;;;9.20;4.65;;;;;;;3.50;100.00;99428.72;5118869;28;20059;-64
2023/12/17 02:16:42;;;;;;;7.97;4.88;;;;;;;3.42;100.00;99446.53;5116300;28;20101;-61
2023/12/17 02:19:09;;;;;;;10.23;4.68;;;;;;;3.43;100.00;99442.72;5118923;28;20151;-60
2023/12/17 02:21:35;;;;;;;8.57;4.30;;;;;;;3.33;100.00;99447.59;5116263;28;20306;-63
2023/12/17 02:24:03;;;;;;;6.70;4.15;;;;;;;3.18;100.00;99441.44;5116159;28;20058;-63
2023/12/17 02:26:29;;;;;;;9.27;4.35;;;;;;;3.28;100.00;99432.25;5118392;28;20116;-64
2023/12/17 02:28:56;;;;;;;12.10;5.00;;;;;;;3.35;100.00;99421.78;5116362;28;20142;-61
2023/12/17 02:31:22;;;;;;;7.13;4.60;;;;;;;3.40;100.00;99427.09;5118606;28;20387;-61
2023/12/17 02:33:49;;;;;;;7.60;4.43;;;;;;;3.34;100.00;99419.41;5116138;28;20112;-62
2023/12/17 02:36:16;;;;;;;12.38;4.68;;;;;;;3.19;100.00;99418.66;5118349;28;20053;-63
2023/12/17 02:38:43;;;;;;;8.00;4.80;;;;;;;3.43;100.00;99409.38;5115912;28;20094;-64
2023/12/17 02:41:10;;;;;;;7.30;4.07;;;;;;;3.42;100.00;99414.00;5118070;28;20058;-65
2023/12/17 02:43:36;;;;;;;6.28;4.25;;;;;;;3.35;100.00;99408.22;5115913;28;20052;-61
2023/12/17 02:46:03;;;;;;;5.95;4.15;;;;;;;3.38;100.00;99409.53;5118436;28;20078;-61
2023/12/17 02:48:29;;;;;;;8.52;4.07;;;;;;;3.09;100.00;99394.53;5115811;28;20158;-63
2023/12/17 02:50:56;;;;;;;8.70;4.32;;;;;;;3.23;100.00;99373.59;5115355;28;20051;-64
2023/12/17 02:53:22;;;;;;;9.20;4.07;;;;;;;3.28;100.00;99362.63;5118068;28;20047;-63
2023/12/17 02:55:49;;;;;;;7.38;3.80;;;;;;;3.57;100.00;99368.66;5115712;28;20059;-61
2023/12/17 02:58:16;;;;;;;6.63;4.13;;;;;;;3.25;100.00;99376.78;5117815;28;20378;-64
2023/12/17 03:00:42;;;;;;;5.95;3.63;;;;;;;3.20;100.00;99363.38;5115878;28;20397;-61
2023/12/17 03:03:11;;;;;;;8.95;3.75;;;;;;;3.33;100.00;99347.31;5118055;28;20154;-62
2023/12/17 03:05:37;;;;;;;9.43;3.53;;;;;;;3.61;100.00;99348.72;5115713;28;20083;-63
2023/12/17 03:08:04;;;;;;;5.72;3.80;;;;;;;3.55;100.00;99355.41;5118049;28;20353;-64
2023/12/17 03:10:30;;;;;;;4.93;3.55;;;;;;;3.41;100.00;99360.13;5115487;28;20058;-64
2023/12/17 03:12:57;;;;;;;5.43;3.63;;;;;;;3.52;100.00;99375.00;5118082;28;20052;-62
2023/12/17 03:15:24;;;;;;;5.68;3.80;;;;;;;3.48;100.00;99371.31;5115327;28;20126;-63
2023/12/17 03:17:50;;;;;;;6.55;4.28;;;;;;;3.36;100.00;99373.81;5116853;28;20450;-64
2023/12/17 03:20:16;;;;;;;4.68;3.47;;;;;;;3.58;100.00;99362.91;5116583;28;20097;-62
2023/12/17 03:22:43;;;;;;;4.82;3.30;;;;;;;3.71;100.00;99375.56;5115283;28;20052;-64
2023/12/17 03:25:09;;;;;;;4.78;3.60;;;;;;;3.77;100.00;99393.28;5117722;28;20189;-61
2023/12/17 03:27:35;;;;;;;4.88;3.28;;;;;;;3.49;100.00;99381.84;5115405;28;20097;-63
2023/12/17 03:30:02;;;;;;;9.95;4.20;;;;;;;3.36;100.00;99390.84;5117440;28;20091;-64
2023/12/17 03:32:29;;;;;;;5.85;3.72;;;;;;;3.21;100.00;99351.44;5115292;28;20091;-62
2023/12/17 03:34:55;;;;;;;5.95;3.70;;;;;;;3.51;100.00;99333.53;5117502;28;20097;-64
2023/12/17 03:37:21;;;;;;;8.02;4.03;;;;;;;3.54;100.00;99322.06;5115126;28;20139;-62
2023/12/17 03:39:50;;;;;;;5.13;3.30;;;;;;;3.44;100.00;99337.81;5117602;28;20322;-64
2023/12/17 03:42:16;;;;;;;3.83;3.03;;;;;;;3.73;100.00;99335.38;5115020;28;20142;-65
2023/12/17 03:44:44;;;;;;;5.97;3.35;;;;;;;3.76;100.00;99336.63;5117482;28;20078;-62
2023/12/17 03:47:11;;;;;;;3.90;3.00;;;;;;;3.71;100.00;99329.44;5116967;28;20056;-61
2023/12/17 03:49:38;;;;;;;5.60;3.75;;;;;;;3.57;100.00;99323.38;5114895;28;20147;-63
2023/12/17 03:52:06;;;;;;;5.82;3.55;;;;;;;3.60;100.00;99303.75;5117264;28;20083;-62
2023/12/17 03:54:33;;;;;;;5.22;3.40;;;;;;;3.74;100.00;99298.19;5114772;28;20055;-63
2023/12/17 03:56:59;;;;;;;5.35;3.55;;;;;;;3.89;100.00;99295.03;5117194;28;20142;-63
2023/12/17 03:59:25;;;;;;;4.07;3.00;;;;;;;3.89;100.00;99296.94;5114767;28;20109;-61
2023/12/17 04:01:51;;;;;;;5.55;2.92;;;;;;;4.06;100.00;99301.59;5116797;28;20087;-64
2023/12/17 04:04:18;;;;;;;4.95;3.40;;;;;;;3.62;100.00;99290.66;5114036;28;20059;-61
2023/12/17 04:06:46;;;;;;;4.78;3.42;;;;;;;3.87;100.00;99266.66;5117180;28;20094;-63
2023/12/17 04:09:12;;;;;;;4.05;2.92;;;;;;;3.89;100.00;99284.19;5114661;28;20055;-63
2023/12/17 04:11:39;;;;;;;6.20;2.92;;;;;;;3.87;100.00;99272.88;5117176;28;20431;-64
2023/12/17 04:14:05;;;;;;;4.40;2.63;;;;;;;3.71;100.00;99286.06;5114406;28;20047;-61
2023/12/17 04:16:31;;;;;;;4.65;3.58;;;;;;;3.80;100.00;99275.25;5114491;28;20135;-64
2023/12/17 04:18:58;;;;;;;4.70;3.38;;;;;;;3.92;100.00;99263.75;5116769;28;20114;-61
2023/12/17 04:21:24;;;;;;;6.05;2.95;;;;;;;4.19;100.00;99252.59;5114636;28;20056;-63
2023/12/17 04:23:53;;;;;;;3.78;2.88;;;;;;;3.92;100.00;99266.47;5116873;28;20177;-64
2023/12/17 04:26:19;;;;;;;3.92;2.58;;;;;;;3.96;100.00;99281.00;5114444;28;20056;-61
2023/12/17 04:28:46;;;;;;;6.45;3.22;;;;;;;3.81;100.00;99274.13;5116739;28;20105;-62
2023/12/17 04:31:12;;;;;;;3.80;3.17;;;;;;;3.97;100.00;99275.25;5114453;28;20059;-64
2023/12/17 04:33:38;;;;;;;4.18;3.38;;;;;;;4.06;100.00;99277.16;5116720;28;20494;-62
2023/12/17 04:36:05;;;;;;;10.98;3.13;;;;;;;4.19;100.00;99289.78;5114251;28;20091;-64
2023/12/17 04:38:32;;;;;;;3.92;3.17;;;;;;;3.84;100.00;99292.47;5116729;28;20051;-63
2023/12/17 04:40:59;;;;;;;5.28;2.60;;;;;;;4.34;100.00;99285.81;5114232;28;20094;-61
2023/12/17 04:43:26;;;;;;;3.35;2.67;;;;;;;4.07;100.00;99300.50;5114988;28;20087;-64
2023/12/17 04:45:52;;;;;;;11.35;3.13;;;;;;;3.89;100.00;99302.38;5115947;28;20089;-63
2023/12/17 04:48:18;;;;;;;3.35;2.50;;;;;;;4.04;100.00;99274.00;5114092;28;20075;-64
2023/12/17 04:50:45;;;;;;;7.10;3.20;;;;;;;4.17;100.00;99281.19;5116511;28;20051;-62
2023/12/17 04:53:11;;;;;;;4.03;2.80;;;;;;;4.17;100.00;99295.53;5114231;28;20059;-64
2023/12/17 04:55:37;;;;;;;7.53;4.53;;;;;;;4.08;100.00;99291.22;5116191;28;20083;-63
2023/12/17 04:58:04;;;;;;;3.22;2.45;;;;;;;4.22;100.00;99295.38;5113865;28;20429;-62
2023/12/17 05:00:31;;;;;;;5.70;2.75;;;;;;;4.33;100.00;99306.72;5116224;28;20091;-64
2023/12/17 05:02:57;;;;;;;5.05;2.97;;;;;;;4.23;100.00;99313.25;5114239;28;20428;-62
2023/12/17 05:05:23;;;;;;;4.65;2.70;;;;;;;4.05;100.00;99319.78;5116386;28;20094;-64
2023/12/17 05:07:50;;;;;;;3.78;2.58;;;;;;;4.21;100.00;99320.13;5113920;28;20071;-62
2023/12/17 05:10:16;;;;;;;3.75;2.63;;;;;;;3.94;100.00;99311.16;5116243;28;20134;-61
2023/12/17 05:12:43;;;;;;;2.33;2.08;;;;;;;4.01;100.00;99276.22;5114417;28;20440;-62
2023/12/17 05:15:10;;;;;;;5.57;2.42;;;;;;;4.24;100.00;99279.56;5116175;28;20094;-61
2023/12/17 05:17:37;;;;;;;5.10;1.90;;;;;;;4.28;100.00;99274.31;5119613;28;20362;-63
2023/12/17 05:20:03;;;;;;;2.58;2.28;;;;;;;4.28;100.00;99270.78;5117248;28;20512;-64
2023/12/17 05:22:30;;;;;;;4.90;2.40;;;;;;;4.08;100.00;99283.88;5119669;28;20098;-63
2023/12/17 05:24:56;;;;;;;3.28;2.42;;;;;;;4.09;100.00;99268.41;5117329;28;20428;-62
2023/12/17 05:27:22;;;;;;;2.95;2.15;;;;;;;4.01;100.00;99267.28;5119687;28;20059;-64
2023/12/17 05:29:48;;;;;;;2.42;2.00;;;;;;;4.16;100.00;99252.44;5117175;28;20112;-63
2023/12/17 05:32:16;;;;;;;3.75;1.83;;;;;;;4.09;100.00;99261.06;5119505;28;20091;-63
2023/12/17 05:34:42;;;;;;;2.55;1.88;;;;;;;3.97;100.00;99252.78;5117109;28;20087;-63
2023/12/17 05:37:08;;;;;;;2.47;1.92;;;;;;;4.23;100.00;99248.13;5119534;28;20329;-62
2023/12/17 05:39:34;;;;;;;2.33;1.80;;;;;;;4.19;100.00;99260.72;5116820;28;20083;-65
2023/12/17 05:42:01;;;;;;;2.13;1.80;;;;;;;4.39;100.00;99261.19;5116828;28;20095;-62
2023/12/17 05:44:27;;;;;;;1.60;1.50;;;;;;;4.31;100.00;99267.44;5118961;28;20218;-62
2023/12/17 05:46:54;;;;;;;1.75;1.52;;;;;;;4.41;100.00;99280.69;5116757;28;20083;-65
2023/12/17 05:49:21;;;;;;;3.78;1.42;;;;;;;4.39;100.00;99285.63;5119095;28;20048;-62
2023/12/17 05:51:48;;;;;;;1.70;1.60;;;;;;;4.29;100.00;99294.88;5116508;28;20059;-64
2023/12/17 05:54:14;;;;;;;2.78;1.55;;;;;;;4.38;100.00;99292.97;5118933;28;20169;-63
2023/12/17 05:56:41;;;;;;;2.40;1.23;;;;;;;4.54;100.00;99296.00;5116412;28;20059;-61
2023/12/17 05:59:08;;;;;;;5.65;1.33;;;;;;;4.27;100.00;99294.44;5119023;28;20051;-65
2023/12/17 06:01:34;;;;;;;1.30;1.20;;;;;;;4.43;100.00;99297.44;5116418;28;20196;-65
2023/12/17 06:04:01;;;;;;;1.50;1.40;;;;;;;4.11;100.00;99304.94;5119171;28;20139;-63
2023/12/17 06:06:28;;;;;;;10.35;1.33;;;;;;;4.37;100.00;99309.59;5116476;28;20105;-61
2023/12/17 06:08:54;;;;;;;1.63;1.45;;;;;;;4.44;100.00;99297.13;5117830;28;20318;-64
2023/12/17 06:11:20;;;;;;;1.63;1.45;;;;;;;4.60;100.00;99302.88;5118031;28;20083;-63
2023/12/17 06:13:47;;;;;;;1.45;1.35;;;;;;;4.61;100.00;99314.53;5116233;28;20091;-63
2023/12/17 06:16:13;;;;;;;4.00;1.50;;;;;;;4.40;100.00;99334.19;5118691;28;20094;-64
2023/12/17 06:18:41;;;;;;;1.30;1.20;;;;;;;4.56;100.00;99326.31;5116429;28;20105;-62
2023/12/17 06:21:08;;;;;;;2.78;1.50;;;;;;;4.65;100.00;99329.03;5118583;28;20105;-63
2023/12/17 06:23:35;;;;;;;1.75;1.35;;;;;;;4.65;100.00;99345.34;5116250;28;20108;-64
2023/12/17 06:26:04;;;;;;;3.92;1.23;;;;;;;4.43;100.00;99330.84;5117570;28;20425;-61
2023/12/17 06:28:30;;;;;;;6.43;1.27;;;;;;;4.56;100.00;99336.41;5116007;28;20409;-61
2023/12/17 06:30:57;;;;;;;1.60;1.30;;;;;;;4.24;100.00;99352.84;5118602;28;20096;-61
2023/12/17 06:33:23;;;;;;;1.52;1.40;;;;;;;4.37;100.00;99321.25;5115994;28;20055;-64
2023/12/17 06:35:49;;;;;;;1.75;1.52;;;;;;;4.75;100.00;99327.91;5118185;28;20055;-62
2023/12/17 06:38:16;;;;;;;2.22;1.35;;;;;;;4.54;100.00;99342.16;5116768;28;20073;-62
2023/12/17 06:40:43;;;;;;;1.65;1.35;;;;;;;4.58;100.00;99356.69;5099105;28;20063;-64
2023/12/17 06:43:09;;;;;;;2.35;1.58;;;;;;;4.74;100.00;99343.41;5118386;28;20097;-61
2023/12/17 06:45:35;;;;;;;1.48;1.27;;;;;;;4.62;100.00;99356.84;5115960;28;20117;-64
2023/12/17 06:48:02;;;;;;;2.92;1.65;;;;;;;4.65;100.00;99362.44;5118120;28;20554;-63
2023/12/17 06:50:28;;;;;;;2.10;1.70;;;;;;;4.72;100.00;99360.03;5115909;28;20116;-61
2023/12/17 06:52:54;;;;;;;1.25;1.17;;;;;;;4.74;100.00;99362.44;5118151;28;20058;-64
2023/12/17 06:55:21;;;;;;;2.13;1.92;;;;;;;4.74;100.00;99373.28;5115795;28;20314;-63
2023/12/17 06:57:48;;;;;;;8.38;1.33;;;;;;;4.60;100.00;99388.94;5117992;28;20058;-64
2023/12/17 07:00:15;;;;;;;1.13;1.10;;;;;;;4.34;100.00;99376.16;5115583;28;20059;-64
2023/12/17 07:02:42;;;;;;;1.10;1.00;;;;;;;4.68;100.00;99356.34;5117773;28;20101;-63
2023/12/17 07:05:09;;;;;;;3.58;1.23;;;;;;;4.32;100.00;99358.59;5115441;28;20409;-63
2023/12/17 07:07:35;;;;;;;1.35;1.20;;;;;;;4.83;100.00;99337.97;5115321;28;20112;-64
2023/12/17 07:10:01;;;;;;;1.55;1.40;;;;;;;4.68;100.00;99342.78;5117829;28;20067;-63
2023/12/17 07:12:28;;;;;;;1.92;1.50;;;;;;;4.88;100.00;99345.94;5115637;28;20109;-65
2023/12/17 07:14:55;;;;;;;1.73;1.48;;;;;;;4.58;100.00;99364.03;5117498;28;20047;-64
2023/12/17 07:17:22;;;;;;;1.48;1.38;;;;;;;4.87;100.00;99366.09;5115246;28;20066;-65
2023/12/17 07:19:48;;;;;;;1.27;1.10;;;;;;;4.90;100.00;99389.91;5117346;28;20051;-62
2023/12/17 07:22:14;;;;;;;1.55;1.42;;;;;;;4.72;100.00;99408.91;5115242;28;20047;-63
2023/12/17 07:24:41;;;;;;;1.38;1.27;;;;;;;4.73;100.00;99390.69;5117855;28;20432;-65
2023/12/17 07:27:07;;;;;;;1.00;1.00;;;;;;;4.61;100.00;99409.56;5115128;28;20048;-63
2023/12/17 07:29:33;;;;;;;2.78;1.42;;;;;;;5.02;100.00;99405.53;5117301;28;20147;-64
2023/12/17 07:32:00;;;;;;;3.47;2.20;;;;;;;4.82;100.00;99420.56;5115431;28;20246;-65
2023/12/17 07:34:27;;;;;;;1.27;1.27;;;;;;;4.87;100.00;99421.22;5116387;28;20055;-63
2023/12/17 07:36:54;;;;;;;0.95;0.95;;;;;;;4.77;100.00;99416.13;5116346;28;20059;-63
2023/12/17 07:39:20;;;;;;;1.38;1.27;;;;;;;4.71;100.00;99412.75;5114940;28;20059;-64
2023/12/17 07:41:47;;;;;;;1.33;1.23;;;;;;;4.90;100.00;99414.34;5117174;28;20047;-64
2023/12/17 07:44:13;;;;;;;0.93;0.90;;;;;;;5.13;100.00;99423.09;5115058;28;20436;-64
2023/12/17 07:46:39;;;;;;;1.52;0.93;;;;;;;4.93;100.00;99449.00;5117388;28;20052;-62
2023/12/17 07:49:06;;;;;;;1.13;1.02;;;;;;;5.04;100.00;99482.13;5114891;28;20059;-65
2023/12/17 07:51:33;;;;;;;0.88;0.88;;;;;;;5.25;100.00;99477.59;5117261;28;20048;-64
2023/12/17 07:53:59;;;;;;;0.90;0.90;;;;;;;5.21;100.00;99503.06;5114734;28;20079;-62
2023/12/17 07:56:26;;;;;;;1.48;0.93;;;;;;;4.78;100.00;99511.97;5117275;28;20055;-65
2023/12/17 07:58:53;;;;;;;1.02;0.93;;;;;;;5.00;100.00;99511.84;5114489;28;20087;-64
2023/12/17 08:01:27;;;;;;;1.23;0.82;;;;;;;5.13;100.00;99512.78;5116916;28;20048;-64
2023/12/17 08:03:54;;;;;;;0.80;0.80;;;;;;;5.27;100.00;99518.88;5116126;28;20051;-62
2023/12/17 08:06:21;;;;;;;1.00;1.00;;;;;;;4.99;100.00;99514.88;5114647;28;20056;-65
2023/12/17 08:08:48;;;;;;;0.85;0.80;;;;;;;5.03;100.00;99502.22;5116809;28;20090;-65
2023/12/17 08:11:15;;;;;;;0.80;0.80;;;;;;;5.37;100.00;99502.22;5114523;28;20238;-62
2023/12/17 08:13:41;;;;;;;1.20;1.10;;;;;;;5.41;100.00;99516.78;5116689;28;20090;-65
2023/12/17 08:16:08;;;;;;;1.65;1.05;;;;;;;5.05;100.00;99527.19;5114456;28;20058;-64
2023/12/17 08:18:35;;;;;;;2.00;1.00;;;;;;;5.48;100.00;99540.75;5116694;28;20055;-63
2023/12/17 08:21:01;;;;;;;3.85;1.30;;;;;;;4.99;100.00;99561.06;5114355;28;20052;-62
2023/12/17 08:23:29;;;;;;;1.20;1.20;;;;;;;5.47;100.00;99546.53;5116891;28;20055;-65
2023/12/17 08:25:55;;;;;;;2.25;1.00;;;;;;;5.30;100.00;99561.72;5114154;28;20056;-64
2023/12/17 08:28:22;;;;;;;1.30;1.20;;;;;;;5.41;100.00;99565.72;5115925;28;20157;-66
2023/12/17 08:30:49;;;;;;;1.23;1.13;;;;;;;5.39;100.00;99567.94;5115273;28;20055;-65
2023/12/17 08:33:15;;;;;;;1.48;1.38;;;;;;;5.06;100.00;99564.91;5114452;28;20055;-63
2023/12/17 08:35:44;;;;;;;3.05;1.00;;;;;;;5.38;100.00;99550.03;5116547;28;20085;-65
2023/12/17 08:38:11;;;;;;;1.38;0.93;;;;;;;5.39;100.00;99564.44;5114104;28;20052;-62
2023/12/17 08:40:40;;;;;;;1.00;0.98;;;;;;;5.40;100.00;99588.59;5116475;28;20051;-61
2023/12/17 08:43:07;;;;;;;1.15;1.05;;;;;;;5.35;100.00;99590.66;5114269;28;20449;-62
2023/12/17 08:45:33;;;;;;;1.40;1.17;;;;;;;5.05;100.00;99585.03;5116612;28;20064;-65
2023/12/17 08:48:00;;;;;;;0.93;0.93;;;;;;;5.41;100.00;99573.09;5114035;28;20067;-64
2023/12/17 08:50:27;;;;;;;1.20;1.10;;;;;;;5.29;100.00;99583.78;5119611;28;20055;-64
2023/12/17 08:52:53;;;;;;;1.45;1.35;;;;;;;5.39;100.00;99583.47;5117696;28;20114;-65
2023/12/17 08:55:20;;;;;;;1.50;1.40;;;;;;;5.52;100.00;99598.81;5120150;28;20113;-65
2023/12/17 08:57:47;;;;;;;2.38;1.25;;;;;;;5.56;100.00;99618.00;5117758;28;20055;-63
2023/12/17 09:00:16;;;;;;;0.95;0.95;;;;;;;5.63;100.00;99619.16;5117784;28;20064;-64
2023/12/17 09:02:42;;;;;;;2.92;1.50;;;;;;;5.82;100.00;99624.25;5119823;28;20420;-66
2023/12/17 09:05:09;;;;;;;3.80;1.58;;;;;;;5.64;100.00;99653.38;5117675;28;20094;-64
2023/12/17 09:07:36;;;;;;;0.95;0.95;;;;;;;5.65;100.00;99665.06;5119709;28;20066;-66
2023/12/17 09:10:03;;;;;;;3.75;1.10;;;;;;;5.61;100.00;99675.00;5117586;28;20348;-63
2023/12/17 09:12:29;;;;;;;1.70;1.10;;;;;;;5.70;100.00;99686.69;5119959;28;20054;-63
2023/12/17 09:14:56;;;;;;;1.25;1.13;;;;;;;5.69;100.00;99686.97;5117193;28;20440;-63
2023/12/17 09:17:24;;;;;;;3.13;1.20;;;;;;;5.81;100.00;99690.69;5119753;28;20382;-65
2023/12/17 09:19:51;;;;;;;4.10;1.38;;;;;;;5.82;100.00;99705.06;5117244;28;20062;-63
2023/12/17 09:22:17;;;;;;;1.45;1.10;;;;;;;6.00;100.00;99701.28;5119825;28;20051;-65
2023/12/17 09:24:44;;;;;;;1.58;1.05;;;;;;;5.53;100.00;99709.22;5117145;28;20055;-64
2023/12/17 09:27:10;;;;;;;1.27;1.17;;;;;;;5.85;100.00;99712.59;5117105;28;20056;-65
2023/12/17 09:29:36;;;;;;;1.00;1.00;;;;;;;5.73;100.00;99715.97;5119239;28;20055;-63
2023/12/17 09:32:04;;;;;;;0.95;0.90;;;;;;;5.75;100.00;99710.19;5116969;28;20089;-66
2023/12/17 09:34:30;;;;;;;1.20;1.10;;;;;;;5.52;100.00;99725.84;5119277;28;20047;-63
2023/12/17 09:36:57;;;;;;;2.95;1.25;;;;;;;5.80;100.00;99718.22;5116944;28;20058;-64
2023/12/17 09:39:23;;;;;;;4.95;1.20;;;;;;;5.84;100.00;99716.44;5119234;28;20094;-64
2023/12/17 09:41:50;;;;;;;1.30;1.20;;;;;;;5.58;100.00;99711.78;5116792;28;20060;-63
2023/12/17 09:44:16;;;;;;;1.42;1.15;;;;;;;5.65;100.00;99717.53;5119159;28;20052;-62
2023/12/17 09:46:43;;;;;;;1.23;1.13;;;;;;;5.90;100.00;99705.09;5116684;28;20090;-65
2023/12/17 09:49:10;;;;;;;3.53;1.50;;;;;;;5.85;100.00;99709.88;5119240;28;20101;-62
2023/12/17 09:51:39;;;;;;;1.30;1.20;;;;;;;5.75;100.00;99699.31;5116599;28;20059;-66
2023/12/17 09:54:06;;;;;;;3.40;1.05;;;;;;;5.65;100.00;99689.53;5117002;28;20059;-65
2023/12/17 09:56:33;;;;;;;1.02;1.02;;;;;;;5.74;100.00;99695.78;5118804;28;20059;-65
2023/12/17 09:58:59;;;;;;;1.10;1.00;;;;;;;5.62;100.00;99707.28;5116497;28;20087;-64
2023/12/17 10:01:26;;;;;;;1.48;1.40;;;;;;;5.61;100.00;99705.69;5118845;28;20106;-64
2023/12/17 10:03:53;;;;;;;1.00;1.00;;;;;;;5.82;100.00;99683.31;5116709;28;20058;-64
2023/12/17 10:06:20;;;;;;;3.30;1.15;;;;;;;5.65;100.00;99695.78;5119001;28;20056;-63
2023/12/17 10:08:47;;;;;;;1.33;1.15;;;;;;;5.88;100.00;99676.59;5116472;28;20198;-64
2023/12/17 10:11:14;;;;;;;1.40;1.30;;;;;;;5.76;100.00;99687.31;5118964;28;20078;-64
2023/12/17 10:13:40;;;;;;;1.60;1.33;;;;;;;5.80;100.00;99693.72;5116241;28;20083;-65
2023/12/17 10:16:07;;;;;;;1.40;1.30;;;;;;;5.94;100.00;99691.66;5118879;28;20449;-63
2023/12/17 10:18:34;;;;;;;1.55;1.30;;;;;;;5.71;100.00;99699.16;5116177;28;20333;-64
2023/12/17 10:21:04;;;;;;;1.95;1.40;;;;;;;5.70;100.00;99716.59;5116974;28;20062;-65
2023/12/17 10:23:45;;;;;;;5.45;1.35;;;;;;;5.79;100.00;99727.47;5118266;28;20200;-63
2023/12/17 10:26:12;;;;;;;1.30;1.30;;;;;;;5.37;100.00;99708.06;5116288;28;20056;-62
2023/12/17 10:28:42;;;;;;;2.65;1.40;;;;;;;5.96;100.00;99707.66;5118378;28;20087;-65
2023/12/17 10:31:11;;;;;;;2.92;1.85;;;;;;;5.68;100.00;99720.75;5115913;28;20052;-66
2023/12/17 10:33:47;;;;;;;1.20;1.17;;;;;;;5.78;100.00;99706.84;5118674;28;20333;-66
2023/12/17 10:36:14;;;;;;;1.38;1.20;;;;;;;5.82;100.00;99718.69;5115865;28;20082;-63
2023/12/17 10:38:42;;;;;;;1.50;1.40;;;;;;;5.44;100.00;99719.28;5118420;28;20105;-64
2023/12/17 10:41:09;;;;;;;1.13;1.10;;;;;;;5.82;100.00;99721.41;5115765;28;20055;-63
2023/12/17 10:43:37;;;;;;;1.33;1.23;;;;;;;5.97;100.00;99729.13;5115854;28;20095;-62
2023/12/17 10:46:03;;;;;;;1.30;1.20;;;;;;;6.04;100.00;99745.78;5101495;28;20059;-62
2023/12/17 10:48:31;;;;;;;1.83;1.50;;;;;;;5.82;100.00;99748.59;5115984;28;20085;-64
2023/12/17 10:50:58;;;;;;;1.92;1.35;;;;;;;6.03;100.00;99760.50;5118092;28;20090;-63
2023/12/17 10:53:24;;;;;;;2.28;1.40;;;;;;;5.73;100.00;99761.38;5115724;28;20055;-63
2023/12/17 10:55:52;;;;;;;3.92;2.05;;;;;;;5.71;100.00;99775.31;5118319;28;20051;-65
2023/12/17 10:58:22;;;;;;;1.73;1.60;;;;;;;5.79;100.00;99779.97;5115534;28;20047;-62
2023/12/17 11:00:49;;;;;;;2.58;1.70;;;;;;;5.99;100.00;99775.06;5118278;28;20051;-62
2023/12/17 11:03:17;;;;;;;1.85;1.63;;;;;;;5.64;100.00;99778.50;5116012;28;20325;-63
2023/12/17 11:05:55;;;;;;;4.72;1.50;;;;;;;6.10;100.00;99779.09;5118153;28;20051;-64
2023/12/17 11:08:24;;;;;;;1.50;1.40;;;;;;;5.38;100.00;99783.88;5117841;28;20336;-64
2023/12/17 11:10:52;;;;;;;5.68;1.85;;;;;;;5.83;100.00;99777.41;5115425;28;20056;-64
2023/12/17 11:13:21;;;;;;;4.43;1.52;;;;;;;5.86;100.00;99788.50;5117178;28;20128;-62
2023/12/17 11:15:48;;;;;;;3.00;2.28;;;;;;;5.84;100.00;99798.06;5115393;28;20065;-64
2023/12/17 11:18:15;;;;;;;2.65;2.28;;;;;;;6.00;100.00;99801.97;5117795;28;20056;-65
2023/12/17 11:20:42;;;;;;;3.63;2.42;;;;;;;5.56;100.00;99800.25;5115318;28;20066;-62
2023/12/17 11:23:08;;;;;;;3.17;1.63;;;;;;;5.48;100.00;99801.03;5117694;28;20397;-62
2023/12/17 11:25:35;;;;;;;1.70;1.60;;;;;;;5.79;100.00;99811.81;5115292;28;20055;-64
2023/12/17 11:28:02;;;;;;;1.88;1.60;;;;;;;6.11;100.00;99824.25;5117785;28;20073;-64
2023/12/17 11:30:29;;;;;;;3.17;2.33;;;;;;;5.58;100.00;99817.06;5115190;28;20339;-62
2023/12/17 11:32:58;;;;;;;3.35;1.95;;;;;;;5.69;100.00;99823.00;5117147;28;20090;-65